Time;durP1;ratioP1;P1;durP2;ratioP2;P2;SDS_P1;SDS_P2;PMS_P1;PMS_P2;Temp;Humidity;BMP_temperature;BMP_pressure;BME280_temperature;BME280_humidity;BME280_pressure;Samples;Min_cycle;Max_cycle;Signal;HPM_P1;HPM_P2
2021/09/02 00:00:11;;;;;;;;;;;;;;;11.79;95.61;98669.52;1681892;85;20176;-72
2021/09/02 00:02:39;;;;;;;;;;;;;;;11.76;96.17;98668.67;1681785;85;20098;-76
2021/09/02 00:05:06;;;;;;;;;;;;;;;11.63;97.16;98666.52;1681890;85;21092;-76
2021/09/02 00:07:31;;;;;;;;;;;;;;;11.57;95.77;98660.80;1681636;84;20130;-76
2021/09/02 00:09:57;;;;;;;;;;;;;;;11.57;95.83;98664.88;1681862;84;20164;-76
2021/09/02 00:12:23;;;;;;;;;;;;;;;11.58;95.74;98665.14;1681850;84;20204;-72
2021/09/02 00:14:48;;;;;;;;;;;;;;;11.50;95.21;98662.97;1681769;85;20177;-72
2021/09/02 00:17:14;;;;;;;;;;;;;;;11.43;95.37;98659.70;1681749;85;21170;-72
2021/09/02 00:19:40;;;;;;;;;;;;;;;11.44;95.76;98672.98;1681705;85;20809;-72
2021/09/02 00:22:06;;;;;;;;;;;;;;;11.38;96.45;98670.56;1681736;85;20213;-72
2021/09/02 00:24:31;;;;;;;;;;;;;;;11.34;97.15;98670.27;1681865;84;20196;-72
2021/09/02 00:26:57;;;;;;;;;;;;;;;11.29;96.33;98669.73;1681923;85;20169;-76
2021/09/02 00:29:23;;;;;;;;;;;;;;;11.25;97.17;98668.63;1681871;85;21053;-72
2021/09/02 00:31:48;;;;;;;;;;;;;;;11.20;96.67;98666.45;1681718;85;20204;-72
2021/09/02 00:34:14;;;;;;;;;;;;;;;11.21;96.44;98669.44;1681888;85;20232;-75
2021/09/02 00:36:40;;;;;;;;;;;;;;;11.20;95.98;98666.45;1681956;85;20144;-76
2021/09/02 00:39:06;;;;;;;;;;;;;;;11.13;96.74;98669.42;1681765;85;20748;-72
2021/09/02 00:41:31;;;;;;;;;;;;;;;11.16;97.32;98675.66;1681902;84;21107;-76
2021/09/02 00:43:57;;;;;;;;;;;;;;;11.13;96.81;98681.63;1681902;85;20176;-72
2021/09/02 00:46:23;;;;;;;;;;;;;;;11.05;97.10;98674.00;1681878;85;20184;-72
2021/09/02 00:48:49;;;;;;;;;;;;;;;11.05;96.52;98675.36;1681918;85;20148;-76
2021/09/02 00:51:16;;;;;;;;;;;;;;;11.05;96.72;98672.65;1683428;84;20158;-72
2021/09/02 00:53:43;;;;;;;;;;;;;;;10.99;96.45;98673.70;1697143;84;21169;-76
2021/09/02 00:56:08;;;;;;;;;;;;;;;11.02;96.38;98678.59;1697252;84;20267;-76
2021/09/02 00:58:35;;;;;;;;;;;;;;;11.02;96.34;98678.59;1697362;84;20179;-72
2021/09/02 01:01:00;;;;;;;;;;;;;;;11.00;96.16;98677.50;1697317;84;20161;-72
2021/09/02 01:03:26;;;;;;;;;;;;;;;10.98;95.92;98680.22;1697321;84;20160;-72
2021/09/02 01:05:52;;;;;;;;;;;;;;;11.01;96.05;98684.55;1697267;84;21087;-73
2021/09/02 01:08:18;;;;;;;;;;;;;;;11.01;95.44;98685.09;1702833;83;20210;-76
2021/09/02 01:10:45;;;;;;;;;;;;;;;10.88;95.97;98684.25;1697389;84;20189;-72
2021/09/02 01:13:10;;;;;;;;;;;;;;;10.77;96.19;98679.33;1702951;83;20146;-72
2021/09/02 01:15:36;;;;;;;;;;;;;;;10.74;95.70;98686.62;1697347;84;20200;-72
2021/09/02 01:18:02;;;;;;;;;;;;;;;10.72;95.39;98684.72;1697142;84;21973;-76
2021/09/02 01:20:30;;;;;;;;;;;;;;;10.63;95.75;98686.31;1697258;83;20258;-72
2021/09/02 01:22:58;;;;;;;;;;;;;;;10.61;96.34;98683.05;1697020;84;20172;-75
2021/09/02 01:25:26;;;;;;;;;;;;;;;10.56;95.99;98691.14;1697371;84;20153;-72
2021/09/02 01:27:53;;;;;;;;;;;;;;;10.55;95.97;98689.52;1697056;83;20142;-72
2021/09/02 01:30:19;;;;;;;;;;;;;;;10.53;97.42;98682.20;1696975;84;21180;-72
2021/09/02 01:32:46;;;;;;;;;;;;;;;10.53;96.62;98684.91;1697174;84;20199;-73
2021/09/02 01:35:12;;;;;;;;;;;;;;;10.51;96.26;98684.33;1697069;84;20141;-72
2021/09/02 01:37:49;;;;;;;;;;;;;;;10.41;97.30;98681.84;1697183;84;20142;-72
2021/09/02 01:40:18;;;;;;;;;;;;;;;10.41;96.79;98683.20;1697095;84;20404;-72
2021/09/02 01:42:44;;;;;;;;;;;;;;;10.39;97.29;98679.94;1694769;84;21817;-72
2021/09/02 01:45:10;;;;;;;;;;;;;;;10.39;97.16;98671.81;1697039;83;20175;-72
2021/09/02 01:47:36;;;;;;;;;;;;;;;10.38;97.40;98672.08;1697168;83;20133;-72
2021/09/02 01:50:22;;;;;;;;;;;;;;;10.39;97.71;98672.35;1697020;84;20180;-76
2021/09/02 01:52:49;;;;;;;;;;;;;;;10.37;97.70;98666.39;1697041;84;20438;-76
2021/09/02 01:55:15;;;;;;;;;;;;;;;10.38;97.57;98665.31;1697038;84;21164;-75
2021/09/02 01:57:41;;;;;;;;;;;;;;;10.37;97.95;98667.20;1697057;84;20211;-73
2021/09/02 02:00:09;;;;;;;;;;;;;;;10.39;97.44;98666.39;1697200;84;20168;-76
2021/09/02 02:02:35;;;;;;;;;;;;;;;10.43;97.18;98666.16;1697078;83;20429;-72
2021/09/02 02:05:00;;;;;;;;;;;;;;;10.49;96.97;98678.36;1697146;84;20160;-76
2021/09/02 02:07:26;;;;;;;;;;;;;;;10.41;97.25;98672.91;1697041;83;21089;-75
2021/09/02 02:09:53;;;;;;;;;;;;;;;10.41;96.67;98669.65;1697066;83;20202;-76
2021/09/02 02:12:18;;;;;;;;;;;;;;;10.39;96.19;98669.64;1697100;83;20421;-72
2021/09/02 02:14:44;;;;;;;;;;;;;;;10.36;96.59;98672.89;1697061;84;20160;-74
2021/09/02 02:17:10;;;;;;;;;;;;;;;10.30;96.94;98666.62;1697130;84;20180;-73
2021/09/02 02:19:35;;;;;;;;;;;;;;;10.25;96.94;98665.22;1697164;83;21093;-72
2021/09/02 02:22:01;;;;;;;;;;;;;;;10.22;97.48;98671.17;1697106;84;20176;-72
2021/09/02 02:24:27;;;;;;;;;;;;;;;10.20;97.00;98667.88;1697277;84;20184;-72
2021/09/02 02:26:53;;;;;;;;;;;;;;;10.13;97.69;98668.64;1697234;83;20235;-76
2021/09/02 02:29:18;;;;;;;;;;;;;;;10.16;97.14;98671.63;1697095;84;20219;-72
2021/09/02 02:31:45;;;;;;;;;;;;;;;10.08;97.89;98669.95;1696991;83;21871;-76
2021/09/02 02:34:10;;;;;;;;;;;;;;;10.08;97.35;98662.67;1697028;84;20172;-76
2021/09/02 02:36:36;;;;;;;;;;;;;;;10.07;96.70;98665.08;1697248;84;20255;-76
2021/09/02 02:39:02;;;;;;;;;;;;;;;10.03;97.27;98661.81;1697181;84;20144;-72
2021/09/02 02:41:28;;;;;;;;;;;;;;;10.04;97.57;98656.12;1697216;84;20449;-72
2021/09/02 02:43:54;;;;;;;;;;;;;;;10.04;97.12;98648.55;1697215;84;21863;-76
2021/09/02 02:46:19;;;;;;;;;;;;;;;9.97;97.44;98647.41;1697282;84;20164;-76
2021/09/02 02:48:45;;;;;;;;;;;;;;;9.97;96.96;98656.08;1696909;84;20166;-72
2021/09/02 02:51:11;;;;;;;;;;;;;;;9.86;98.23;98661.42;1697089;83;20136;-76
2021/09/02 02:53:37;;;;;;;;;;;;;;;9.90;97.99;98661.70;1684074;83;20212;-72
2021/09/02 02:56:03;;;;;;;;;;;;;;;9.89;98.03;98661.44;1681962;85;21125;-76
2021/09/02 02:58:29;;;;;;;;;;;;;;;9.89;97.93;98659.53;1681639;85;20431;-72
2021/09/02 03:00:54;;;;;;;;;;;;;;;9.92;97.63;98662.28;1682014;84;20684;-76
2021/09/02 03:03:20;;;;;;;;;;;;;;;9.90;98.24;98661.16;1681681;85;20187;-72
2021/09/02 03:05:46;;;;;;;;;;;;;;;9.89;97.67;98660.08;1681992;85;20237;-76
2021/09/02 03:08:11;;;;;;;;;;;;;;;9.83;98.25;98663.30;1681698;85;20950;-75
2021/09/02 03:10:37;;;;;;;;;;;;;;;9.81;97.93;98661.91;1681808;85;20760;-72
2021/09/02 03:13:03;;;;;;;;;;;;;;;9.81;97.42;98661.38;1681607;85;20196;-76
2021/09/02 03:15:30;;;;;;;;;;;;;;;9.88;97.46;98663.86;1681625;85;20141;-76
2021/09/02 03:17:57;;;;;;;;;;;;;;;9.89;97.74;98660.89;1681711;84;20127;-72
2021/09/02 03:20:23;;;;;;;;;;;;;;;9.95;97.62;98660.41;1681618;85;21045;-76
2021/09/02 03:22:49;;;;;;;;;;;;;;;10.03;97.95;98661.81;1681718;84;20227;-76
2021/09/02 03:25:14;;;;;;;;;;;;;;;10.05;98.44;98666.42;1681654;85;20196;-71
2021/09/02 03:27:40;;;;;;;;;;;;;;;10.08;97.84;98667.25;1681677;85;20145;-72
2021/09/02 03:30:07;;;;;;;;;;;;;;;10.05;97.49;98663.72;1681728;84;20193;-76
2021/09/02 03:32:32;;;;;;;;;;;;;;;10.04;97.73;98664.25;1681710;85;22008;-72
2021/09/02 03:34:58;;;;;;;;;;;;;;;10.08;98.33;98665.38;1681668;85;20172;-72
2021/09/02 03:37:24;;;;;;;;;;;;;;;10.12;97.90;98662.95;1681851;85;20205;-72
2021/09/02 03:39:49;;;;;;;;;;;;;;;10.16;97.64;98666.22;1681815;85;20149;-71
2021/09/02 03:42:15;;;;;;;;;;;;;;;10.20;98.01;98669.23;1681843;85;20177;-72
2021/09/02 03:44:41;;;;;;;;;;;;;;;10.25;98.31;98668.47;1681719;85;21776;-76
2021/09/02 03:47:07;;;;;;;;;;;;;;;10.28;98.01;98666.61;1681641;85;20184;-72
2021/09/02 03:49:32;;;;;;;;;;;;;;;10.32;97.61;98667.16;1681853;85;20236;-72
2021/09/02 03:51:58;;;;;;;;;;;;;;;10.35;97.70;98668.55;1682215;84;20148;-76
2021/09/02 03:54:24;;;;;;;;;;;;;;;10.36;97.97;98668.28;1697124;84;20259;-76
2021/09/02 03:56:50;;;;;;;;;;;;;;;10.34;98.12;98664.19;1697138;84;21198;-76
2021/09/02 03:59:15;;;;;;;;;;;;;;;10.33;97.66;98667.44;1697073;84;20195;-72
2021/09/02 04:01:41;;;;;;;;;;;;;;;10.33;97.62;98669.33;1697191;84;20164;-75
2021/09/02 04:04:07;;;;;;;;;;;;;;;10.36;97.50;98670.18;1696952;84;20154;-75
2021/09/02 04:06:33;;;;;;;;;;;;;;;10.31;97.58;98670.14;1697305;84;20156;-76
2021/09/02 04:08:58;;;;;;;;;;;;;;;10.36;97.23;98683.73;1696905;84;20415;-76
2021/09/02 04:11:24;;;;;;;;;;;;;;;10.34;97.09;98681.80;1697127;84;20183;-76
2021/09/02 04:13:50;;;;;;;;;;;;;;;10.36;97.04;98683.19;1697008;84;20176;-76
2021/09/02 04:16:15;;;;;;;;;;;;;;;10.40;97.08;98684.82;1697216;84;20204;-72
2021/09/02 04:18:41;;;;;;;;;;;;;;;10.48;97.37;98695.16;1697132;84;20164;-72
2021/09/02 04:21:08;;;;;;;;;;;;;;;10.55;97.70;98694.94;1697445;84;21093;-76
2021/09/02 04:23:34;;;;;;;;;;;;;;;10.58;97.40;98699.28;1697116;83;20181;-76
2021/09/02 04:26:00;;;;;;;;;;;;;;;10.60;97.44;98702.56;1697388;83;20184;-76
2021/09/02 04:28:26;;;;;;;;;;;;;;;10.65;97.27;98701.75;1697170;84;20409;-76
2021/09/02 04:30:52;;;;;;;;;;;;;;;10.68;96.99;98692.58;1697479;84;20700;-72
2021/09/02 04:33:17;;;;;;;;;;;;;;;10.74;97.38;98694.20;1697143;84;21137;-72
2021/09/02 04:35:43;;;;;;;;;;;;;;;10.84;97.11;98693.44;1697242;84;20835;-72
2021/09/02 04:38:09;;;;;;;;;;;;;;;10.91;97.08;98699.44;1697136;84;20612;-73
2021/09/02 04:40:35;;;;;;;;;;;;;;;10.94;96.62;98698.92;1697405;84;20216;-76
2021/09/02 04:43:00;;;;;;;;;;;;;;;10.98;97.07;98701.36;1697322;83;20191;-72
2021/09/02 04:45:26;;;;;;;;;;;;;;;11.00;97.08;98695.13;1697426;84;21091;-72
2021/09/02 04:47:52;;;;;;;;;;;;;;;11.02;96.51;98701.64;1697174;84;20227;-72
2021/09/02 04:50:18;;;;;;;;;;;;;;;11.03;96.33;98704.66;1697192;84;20160;-73
2021/09/02 04:52:43;;;;;;;;;;;;;;;11.04;96.58;98710.34;1697190;84;20141;-76
2021/09/02 04:55:10;;;;;;;;;;;;;;;11.09;96.80;98706.82;1697287;84;20231;-73
2021/09/02 04:57:37;;;;;;;;;;;;;;;11.09;96.40;98713.60;1697401;83;21172;-76
2021/09/02 05:00:04;;;;;;;;;;;;;;;11.08;97.45;98710.08;1697120;83;20445;-76
2021/09/02 05:02:30;;;;;;;;;;;;;;;11.15;96.82;98718.78;1697207;84;20146;-73
2021/09/02 05:04:55;;;;;;;;;;;;;;;11.23;96.56;98712.84;1697227;83;20136;-72
2021/09/02 05:07:21;;;;;;;;;;;;;;;11.23;96.46;98719.63;1697340;84;20160;-76
2021/09/02 05:09:47;;;;;;;;;;;;;;;11.33;96.67;98724.80;1697104;84;21777;-76
2021/09/02 05:12:13;;;;;;;;;;;;;;;11.39;96.74;98725.91;1697175;84;20211;-76
2021/09/02 05:14:38;;;;;;;;;;;;;;;11.45;96.59;98716.70;1697081;84;20561;-76
2021/09/02 05:17:04;;;;;;;;;;;;;;;11.43;95.75;98724.28;1697390;84;20695;-72
2021/09/02 05:19:30;;;;;;;;;;;;;;;11.41;96.63;98720.21;1697129;84;20160;-76
2021/09/02 05:21:55;;;;;;;;;;;;;;;11.42;96.97;98719.94;1697344;84;21079;-72
2021/09/02 05:24:21;;;;;;;;;;;;;;;11.53;97.07;98728.91;1697031;84;20239;-76
2021/09/02 05:26:47;;;;;;;;;;;;;;;11.57;96.73;98729.47;1697258;84;20210;-72
2021/09/02 05:29:12;;;;;;;;;;;;;;;11.59;96.63;98727.84;1696983;84;20140;-72
2021/09/02 05:31:38;;;;;;;;;;;;;;;11.65;96.44;98733.56;1697355;84;20148;-75
2021/09/02 05:34:04;;;;;;;;;;;;;;;11.69;96.17;98728.40;1697147;84;21110;-72
2021/09/02 05:36:30;;;;;;;;;;;;;;;11.72;96.04;98728.69;1697300;84;20160;-72
2021/09/02 05:38:55;;;;;;;;;;;;;;;11.73;96.07;98733.58;1697145;84;20263;-72
2021/09/02 05:41:21;;;;;;;;;;;;;;;11.76;96.21;98734.38;1697250;84;20394;-76
2021/09/02 05:43:47;;;;;;;;;;;;;;;11.80;95.90;98736.34;1697080;84;20144;-73
2021/09/02 05:46:13;;;;;;;;;;;;;;;11.82;96.00;98738.77;1697370;84;21168;-76
2021/09/02 05:48:38;;;;;;;;;;;;;;;11.91;95.60;98741.77;1697042;83;20275;-76
2021/09/02 05:51:04;;;;;;;;;;;;;;;11.93;95.84;98745.83;1697286;84;20203;-76
2021/09/02 05:53:30;;;;;;;;;;;;;;;12.00;95.84;98743.67;1696892;84;20188;-76
2021/09/02 05:55:55;;;;;;;;;;;;;;;12.12;96.04;98744.75;1697286;84;20160;-76
2021/09/02 05:58:21;;;;;;;;;;;;;;;12.30;96.15;98750.17;1697099;84;21109;-72
2021/09/02 06:00:48;;;;;;;;;;;;;;;12.39;96.50;98748.02;1697354;84;20179;-72
2021/09/02 06:03:13;;;;;;;;;;;;;;;12.52;96.07;98752.61;1697225;83;20464;-76
2021/09/02 06:05:39;;;;;;;;;;;;;;;12.62;96.06;98760.19;1697236;84;20188;-72
2021/09/02 06:08:05;;;;;;;;;;;;;;;12.78;96.06;98754.72;1697124;84;20140;-76
2021/09/02 06:10:32;;;;;;;;;;;;;;;12.87;95.77;98748.44;1697317;84;21094;-72
2021/09/02 06:12:58;;;;;;;;;;;;;;;13.07;95.99;98749.45;1697196;83;20162;-76
2021/09/02 06:15:24;;;;;;;;;;;;;;;13.32;95.70;98751.28;1697295;84;20294;-76
2021/09/02 06:17:49;;;;;;;;;;;;;;;13.51;95.76;98748.20;1697194;84;20403;-73
2021/09/02 06:20:15;;;;;;;;;;;;;;;13.75;95.50;98750.48;1697053;84;20235;-77
2021/09/02 06:22:41;;;;;;;;;;;;;;;13.90;94.74;98753.66;1697323;84;21033;-72
2021/09/02 06:25:08;;;;;;;;;;;;;;;13.97;93.82;98760.16;1696924;84;20176;-72
2021/09/02 06:27:34;;;;;;;;;;;;;;;14.04;93.24;98760.66;1697273;84;20429;-76
2021/09/02 06:30:00;;;;;;;;;;;;;;;14.11;92.19;98764.69;1696975;84;20122;-76
2021/09/02 06:32:26;;;;;;;;;;;;;;;14.19;91.86;98765.18;1697297;84;20144;-76
2021/09/02 06:34:51;;;;;;;;;;;;;;;14.19;92.21;98767.36;1696980;84;21076;-72
2021/09/02 06:37:17;;;;;;;;;;;;;;;14.21;91.87;98772.52;1697137;84;20199;-76
2021/09/02 06:39:43;;;;;;;;;;;;;;;14.24;89.85;98769.21;1697022;84;20302;-76
2021/09/02 06:42:09;;;;;;;;;;;;;;;14.39;90.09;98775.91;1697257;84;20164;-76
2021/09/02 06:44:34;;;;;;;;;;;;;;;14.23;88.68;98777.12;1696972;84;20160;-73
2021/09/02 06:47:00;;;;;;;;;;;;;;;14.18;88.71;98776.60;1697289;84;21082;-72
2021/09/02 06:49:26;;;;;;;;;;;;;;;14.13;88.22;98785.39;1697055;84;20286;-72
2021/09/02 06:51:53;;;;;;;;;;;;;;;14.18;88.62;98788.05;1697289;84;20692;-77
2021/09/02 06:54:20;;;;;;;;;;;;;;;14.53;88.23;98791.09;1696806;84;20184;-72
2021/09/02 06:56:46;;;;;;;;;;;;;;;15.11;86.45;98793.20;1697318;84;20421;-73
2021/09/02 06:59:12;;;;;;;;;;;;;;;15.46;84.21;98794.69;1697068;83;21102;-76
2021/09/02 07:01:37;;;;;;;;;;;;;;;15.64;86.28;98801.34;1697266;84;20191;-76
2021/09/02 07:04:03;;;;;;;;;;;;;;;15.76;82.85;98800.34;1697179;84;20176;-73
2021/09/02 07:06:29;;;;;;;;;;;;;;;15.76;80.92;98794.88;1697270;84;20192;-73
2021/09/02 07:08:55;;;;;;;;;;;;;;;16.28;78.09;98795.73;1697079;84;20184;-77
2021/09/02 07:11:21;;;;;;;;;;;;;;;17.21;77.95;98806.70;1697253;84;21725;-73
2021/09/02 07:13:46;;;;;;;;;;;;;;;17.56;77.50;98798.88;1697048;84;20739;-77
2021/09/02 07:16:12;;;;;;;;;;;;;;;17.79;74.08;98795.67;1697266;84;20176;-73
2021/09/02 07:18:38;;;;;;;;;;;;;;;17.68;73.14;98802.70;1697049;84;20145;-73
2021/09/02 07:21:03;;;;;;;;;;;;;;;17.39;70.26;98807.72;1697584;84;20176;-73
2021/09/02 07:23:29;;;;;;;;;;;;;;;17.99;71.08;98808.35;1697153;84;21133;-73
2021/09/02 07:25:55;;;;;;;;;;;;;;;18.74;70.91;98815.64;1697232;83;20267;-73
2021/09/02 07:28:21;;;;;;;;;;;;;;;18.45;68.16;98821.54;1697015;83;20274;-72
2021/09/02 07:30:46;;;;;;;;;;;;;;;18.68;68.44;98823.19;1697154;83;20641;-77
2021/09/02 07:33:12;;;;;;;;;;;;;;;18.63;67.09;98818.34;1697100;84;20263;-77
2021/09/02 07:35:38;;;;;;;;;;;;;;;18.08;68.09;98823.52;1697291;84;21271;-73
2021/09/02 07:38:05;;;;;;;;;;;;;;;17.63;70.13;98831.59;1697017;84;20251;-73
2021/09/02 07:40:30;;;;;;;;;;;;;;;17.98;69.09;98831.41;1697250;83;20146;-73
2021/09/02 07:42:56;;;;;;;;;;;;;;;18.71;69.34;98829.98;1697111;84;20180;-73
2021/09/02 07:45:22;;;;;;;;;;;;;;;19.69;68.74;98829.81;1696974;84;20172;-73
2021/09/02 07:47:48;;;;;;;;;;;;;;;19.91;60.72;98831.61;1697172;83;21032;-77
2021/09/02 07:50:14;;;;;;;;;;;;;;;20.75;62.43;98837.22;1697034;84;20235;-73
2021/09/02 07:52:40;;;;;;;;;;;;;;;20.36;58.92;98831.34;1697306;84;20223;-77
2021/09/02 07:55:07;;;;;;;;;;;;;;;20.57;58.76;98835.06;1683993;84;20147;-73
2021/09/02 07:57:33;;;;;;;;;;;;;;;20.96;57.31;98828.52;1682044;84;20127;-77
2021/09/02 07:59:58;;;;;;;;;;;;;;;20.40;58.45;98828.97;1681690;85;21031;-77
2021/09/02 08:02:24;;;;;;;;;;;;;;;20.88;60.45;98828.55;1681970;85;20192;-73
2021/09/02 08:04:50;;;;;;;;;;;;;;;20.98;60.12;98831.75;1681798;85;20168;-77
2021/09/02 08:07:16;;;;;;;;;;;;;;;21.02;59.10;98838.77;1681933;85;20637;-75
2021/09/02 08:09:41;;;;;;;;;;;;;;;20.32;58.25;98840.80;1681727;85;20193;-73
2021/09/02 08:12:14;;;;;;;;;;;;;;;19.52;59.25;98843.47;1681830;85;20137;-73
2021/09/02 08:14:40;;;;;;;;;;;;;;;19.79;60.71;98841.87;1681674;85;20177;-73
2021/09/02 08:17:06;;;;;;;;;;;;;;;19.47;59.49;98843.60;1682019;85;20244;-73
2021/09/02 08:19:31;;;;;;;;;;;;;;;18.51;61.67;98832.64;1681752;84;20650;-77
2021/09/02 08:21:57;;;;;;;;;;;;;;;18.58;61.48;98838.52;1682007;85;20153;-78
2021/09/02 08:24:23;;;;;;;;;;;;;;;18.63;62.03;98832.91;1681860;85;21068;-77
2021/09/02 08:26:49;;;;;;;;;;;;;;;19.31;61.36;98839.09;1681841;85;20176;-77
2021/09/02 08:29:15;;;;;;;;;;;;;;;19.77;58.52;98840.58;1681805;84;20172;-77
2021/09/02 08:31:40;;;;;;;;;;;;;;;20.58;56.47;98835.87;1682026;85;20181;-77
2021/09/02 08:34:06;;;;;;;;;;;;;;;21.06;55.63;98842.51;1681762;85;20196;-74
2021/09/02 08:36:32;;;;;;;;;;;;;;;20.94;55.84;98841.82;1681912;85;21153;-78
2021/09/02 08:38:58;;;;;;;;;;;;;;;20.90;56.04;98839.47;1681793;85;20393;-78
2021/09/02 08:41:24;;;;;;;;;;;;;;;21.66;52.55;98836.77;1681980;84;20216;-73
2021/09/02 08:43:49;;;;;;;;;;;;;;;21.92;53.32;98843.51;1681851;85;20208;-78
2021/09/02 08:46:16;;;;;;;;;;;;;;;21.57;54.38;98844.28;1682020;85;20192;-73
2021/09/02 08:48:46;;;;;;;;;;;;;;;20.95;54.67;98839.88;1681742;84;21126;-73
2021/09/02 08:51:12;;;;;;;;;;;;;;;21.62;53.04;98845.48;1681935;85;20167;-73
2021/09/02 08:53:38;;;;;;;;;;;;;;;21.46;52.25;98849.13;1683354;84;20195;-73
2021/09/02 08:56:04;;;;;;;;;;;;;;;21.77;54.33;98841.32;1697064;83;20164;-76
2021/09/02 08:58:32;;;;;;;;;;;;;;;21.92;53.19;98844.08;1697324;84;20211;-74
2021/09/02 09:00:57;;;;;;;;;;;;;;;22.52;53.28;98839.50;1697347;83;20930;-74
2021/09/02 09:03:23;;;;;;;;;;;;;;;23.02;48.16;98842.70;1697078;83;20211;-74
2021/09/02 09:05:53;;;;;;;;;;;;;;;24.26;44.39;98842.92;1697371;84;20409;-74
2021/09/02 09:08:19;;;;;;;;;;;;;;;25.01;42.01;98844.50;1697215;84;20663;-77
2021/09/02 09:10:45;;;;;;;;;;;;;;;26.64;44.01;98852.38;1697084;84;20172;-75
2021/09/02 09:13:11;;;;;;;;;;;;;;;27.26;38.17;98850.39;1697237;84;21613;-77
2021/09/02 09:15:42;;;;;;;;;;;;;;;26.29;38.23;98852.41;1696991;84;20191;-75
2021/09/02 09:18:19;;;;;;;;;;;;;;;26.57;37.92;98852.22;1697243;84;20413;-77
2021/09/02 09:20:47;;;;;;;;;;;;;;;26.00;37.39;98849.00;1697042;83;20142;-75
2021/09/02 09:23:13;;;;;;;;;;;;;;;28.05;37.95;98837.19;1694642;84;20185;-75
2021/09/02 09:25:38;;;;;;;;;;;;;;;27.50;37.18;98846.44;1697043;84;21822;-74
2021/09/02 09:28:04;;;;;;;;;;;;;;;26.56;36.73;98845.86;1696934;84;20195;-78
2021/09/02 09:30:33;;;;;;;;;;;;;;;24.93;39.55;98839.92;1697127;84;20211;-77
2021/09/02 09:33:04;;;;;;;;;;;;;;;22.62;43.42;98843.80;1697407;83;20106;-75
2021/09/02 09:35:31;;;;;;;;;;;;;;;21.37;46.02;98844.46;1697111;84;20173;-74
2021/09/02 09:38:21;;;;;;;;;;;;;;;20.47;50.49;98834.03;1697243;84;21137;-76
2021/09/02 09:40:49;;;;;;;;;;;;;;;20.44;51.76;98835.50;1696984;83;20138;-74
2021/09/02 09:43:23;;;;;;;;;;;;;;;19.57;54.58;98830.44;1697015;84;20134;-76
2021/09/02 09:45:54;;;;;;;;;;;;;;;19.13;54.55;98840.39;1697059;83;20478;-74
2021/09/02 09:48:26;;;;;;;;;;;;;;;19.03;56.45;98839.86;1697178;84;20224;-76
2021/09/02 09:51:16;;;;;;;;;;;;;;;18.87;56.39;98838.07;1697141;83;21190;-74
2021/09/02 09:53:44;;;;;;;;;;;;;;;18.75;56.67;98841.41;1697026;83;20165;-74
2021/09/02 09:56:10;;;;;;;;;;;;;;;18.79;57.24;98840.20;1697221;84;20225;-76
2021/09/02 09:58:36;;;;;;;;;;;;;;;19.10;56.54;98852.59;1697413;83;20223;-74
2021/09/02 10:01:03;;;;;;;;;;;;;;;19.00;55.65;98841.87;1697101;84;20170;-73
2021/09/02 10:03:31;;;;;;;;;;;;;;;19.56;55.38;98843.91;1697295;84;21108;-76
2021/09/02 10:06:02;;;;;;;;;;;;;;;19.42;52.51;98844.01;1696621;84;20240;-76
2021/09/02 10:08:28;;;;;;;;;;;;;;;19.72;53.87;98847.03;1697200;84;20420;-76
2021/09/02 10:10:54;;;;;;;;;;;;;;;19.41;54.86;98841.02;1678935;84;20199;-76
2021/09/02 10:13:20;;;;;;;;;;;;;;;19.39;53.27;98846.00;1697192;84;20195;-73
2021/09/02 10:15:46;;;;;;;;;;;;;;;19.29;54.14;98848.22;1697107;83;20761;-80
2021/09/02 10:18:12;;;;;;;;;;;;;;;19.25;55.29;98845.31;1696150;83;20141;-75
2021/09/02 10:20:38;;;;;;;;;;;;;;;19.45;55.74;98856.30;1678376;84;20146;-72
2021/09/02 10:23:05;;;;;;;;;;;;;;;19.48;54.46;98858.96;1696993;83;20192;-79
2021/09/02 10:25:35;;;;;;;;;;;;;;;19.69;54.33;98858.67;1697058;83;20433;-79
2021/09/02 10:28:08;;;;;;;;;;;;;;;19.77;52.33;98858.45;1697312;84;21288;-73
2021/09/02 10:30:43;;;;;;;;;;;;;;;19.76;52.58;98860.40;1696988;84;20165;-79
2021/09/02 10:33:35;;;;;;;;;;;;;;;20.02;53.34;98854.14;1693029;84;20142;-73
2021/09/02 10:36:12;;;;;;;;;;;;;;;19.84;53.63;98855.48;1696449;83;20158;-73
2021/09/02 10:38:45;;;;;;;;;;;;;;;19.78;54.40;98854.00;1696173;83;20412;-82
2021/09/02 10:41:11;;;;;;;;;;;;;;;19.80;53.15;98854.48;1696911;84;21101;-76
2021/09/02 10:43:53;;;;;;;;;;;;;;;19.97;53.48;98853.14;1697115;83;20195;-73
2021/09/02 10:46:29;;;;;;;;;;;;;;;19.78;52.83;98851.83;1697203;83;20137;-75
2021/09/02 10:48:57;;;;;;;;;;;;;;;19.75;52.48;98850.53;1695022;83;20397;-73
2021/09/02 10:51:39;;;;;;;;;;;;;;;19.69;53.10;98853.98;1697307;84;20145;-79
2021/09/02 10:54:06;;;;;;;;;;;;;;;19.65;51.89;98859.89;1696923;84;21061;-78
2021/09/02 10:56:33;;;;;;;;;;;;;;;19.57;53.90;98855.71;1701811;83;20477;-72
2021/09/02 10:58:59;;;;;;;;;;;;;;;19.18;56.05;98862.81;1705108;82;20133;-73
2021/09/02 11:01:29;;;;;;;;;;;;;;;19.14;56.57;98863.17;1721513;83;20157;-73
2021/09/02 11:03:56;;;;;;;;;;;;;;;19.00;56.63;98859.16;1722896;82;20171;-73
2021/09/02 11:06:23;;;;;;;;;;;;;;;18.76;57.21;98861.43;1696917;84;21122;-73
2021/09/02 11:08:49;;;;;;;;;;;;;;;18.52;56.22;98864.45;1697007;84;20150;-72
2021/09/02 11:11:20;;;;;;;;;;;;;;;18.64;57.06;98868.84;1696957;84;20224;-73
2021/09/02 11:13:51;;;;;;;;;;;;;;;18.68;58.15;98867.11;1715997;83;20152;-73
2021/09/02 11:16:20;;;;;;;;;;;;;;;18.71;58.25;98867.03;1726034;82;20143;-68
2021/09/02 11:18:48;;;;;;;;;;;;;;;18.86;57.95;98870.21;1726177;82;21061;-68
2021/09/02 11:21:19;;;;;;;;;;;;;;;18.88;56.03;98870.73;1725797;83;20207;-69
2021/09/02 11:23:45;;;;;;;;;;;;;;;18.77;55.41;98871.28;1726050;82;20175;-73
2021/09/02 11:26:12;;;;;;;;;;;;;;;18.65;55.86;98865.00;1725449;82;20190;-78
2021/09/02 11:28:48;;;;;;;;;;;;;;;18.42;56.34;98868.25;1724640;82;20172;-75
2021/09/02 11:31:13;;;;;;;;;;;;;;;18.28;56.65;98869.66;1725928;82;21120;-75
2021/09/02 11:33:48;;;;;;;;;;;;;;;18.09;57.01;98877.80;1726160;82;20177;-74
2021/09/02 11:36:13;;;;;;;;;;;;;;;18.20;58.22;98870.42;1725415;83;20310;-79
2021/09/02 11:38:40;;;;;;;;;;;;;;;18.64;56.24;98872.15;1726223;82;20189;-80
2021/09/02 11:41:08;;;;;;;;;;;;;;;18.77;56.24;98867.97;1726033;82;20144;-80
2021/09/02 11:43:36;;;;;;;;;;;;;;;18.72;54.48;98878.30;1726143;82;21338;-74
2021/09/02 11:46:05;;;;;;;;;;;;;;;18.97;55.30;98872.69;1725995;82;20131;-75
2021/09/02 11:48:31;;;;;;;;;;;;;;;19.18;54.83;98873.80;1725868;82;20127;-74
2021/09/02 11:51:01;;;;;;;;;;;;;;;19.12;55.36;98875.86;1707636;83;20139;-79
2021/09/02 11:53:30;;;;;;;;;;;;;;;18.56;54.22;98878.63;1726370;82;20091;-79
2021/09/02 11:56:18;;;;;;;;;;;;;;;18.69;55.48;98879.70;1700800;83;21703;-74
2021/09/02 11:58:45;;;;;;;;;;;;;;;18.60;56.64;98874.69;1718003;83;20431;-79
2021/09/02 12:01:12;;;;;;;;;;;;;;;18.55;56.65;98874.27;1718030;83;20124;-79
2021/09/02 12:03:37;;;;;;;;;;;;;;;18.45;55.91;98879.16;1718149;83;20164;-79
2021/09/02 12:06:03;;;;;;;;;;;;;;;18.41;57.47;98880.91;1718143;83;20174;-79
2021/09/02 12:08:29;;;;;;;;;;;;;;;18.35;58.53;98875.29;1718223;83;21113;-74
2021/09/02 12:10:55;;;;;;;;;;;;;;;18.26;59.25;98882.07;1718328;83;20178;-78
2021/09/02 12:13:30;;;;;;;;;;;;;;;18.21;59.25;98880.83;1718147;83;20194;-74
2021/09/02 12:16:10;;;;;;;;;;;;;;;18.08;60.26;98878.36;1717575;83;20647;-79
2021/09/02 12:18:38;;;;;;;;;;;;;;;17.91;59.56;98880.37;1718154;83;20124;-79
2021/09/02 12:21:12;;;;;;;;;;;;;;;17.82;60.64;98876.72;1717794;83;21084;-74
2021/09/02 12:23:53;;;;;;;;;;;;;;;17.91;61.30;98873.52;1717667;83;20139;-79
2021/09/02 12:26:20;;;;;;;;;;;;;;;18.06;61.29;98872.94;1717965;83;20160;-74
2021/09/02 12:28:49;;;;;;;;;;;;;;;18.38;60.47;98869.20;1718187;83;20493;-74
2021/09/02 12:31:20;;;;;;;;;;;;;;;18.53;60.65;98872.93;1718013;83;20187;-79
2021/09/02 12:34:01;;;;;;;;;;;;;;;18.84;59.95;98871.09;1718093;83;21081;-79
2021/09/02 12:36:29;;;;;;;;;;;;;;;19.11;57.28;98865.19;1718141;83;20135;-74
2021/09/02 12:38:54;;;;;;;;;;;;;;;19.50;58.04;98865.78;1718305;83;20136;-74
2021/09/02 12:41:24;;;;;;;;;;;;;;;19.74;58.36;98859.91;1718169;83;20134;-74
2021/09/02 12:44:10;;;;;;;;;;;;;;;19.96;57.55;98859.78;1718212;83;20160;-74
2021/09/02 12:46:46;;;;;;;;;;;;;;;19.89;53.48;98854.51;1718128;83;21055;-74